Time;durP1;ratioP1;P1;durP2;ratioP2;P2;SDS_P1;SDS_P2;PMS_P1;PMS_P2;Temp;Humidity;BMP_temperature;BMP_pressure;BME280_temperature;BME280_humidity;BME280_pressure;Samples;Min_cycle;Max_cycle;Signal;HPM_P1;HPM_P2
2023/05/04 00:02:21;;;;;;;8.35;4.85;;;7.60;99.90;;;;;;5038534;28;20403;-58
2023/05/04 00:04:47;;;;;;;10.25;5.10;;;7.50;99.90;;;;;;5048783;28;20049;-57
2023/05/04 00:07:12;;;;;;;10.63;5.20;;;7.50;99.90;;;;;;5041820;28;20076;-57
2023/05/04 00:09:38;;;;;;;8.13;5.10;;;7.40;99.90;;;;;;5039573;28;20045;-57
2023/05/04 00:12:04;;;;;;;9.85;5.30;;;7.40;99.90;;;;;;5041497;28;20042;-57
2023/05/04 00:14:30;;;;;;;8.57;4.90;;;7.40;99.90;;;;;;5059836;28;20580;-57
2023/05/04 00:16:56;;;;;;;11.07;4.85;;;7.40;99.90;;;;;;5059560;28;20040;-57
2023/05/04 00:19:21;;;;;;;9.77;4.60;;;7.30;99.90;;;;;;5052546;28;20052;-57
2023/05/04 00:21:47;;;;;;;9.23;4.95;;;7.40;99.90;;;;;;5040394;28;20042;-57
2023/05/04 00:24:13;;;;;;;11.20;4.80;;;7.30;99.90;;;;;;5045395;28;20040;-57
2023/05/04 00:26:38;;;;;;;8.25;5.00;;;7.30;99.90;;;;;;5050935;28;20040;-57
2023/05/04 00:29:04;;;;;;;8.32;5.13;;;7.20;99.90;;;;;;5043607;28;20049;-57
2023/05/04 00:31:30;;;;;;;9.25;5.05;;;7.20;99.90;;;;;;5057450;28;20045;-57
2023/05/04 00:33:55;;;;;;;8.85;5.40;;;7.20;99.90;;;;;;5059719;28;20037;-58
2023/05/04 00:36:21;;;;;;;9.48;5.00;;;7.20;99.90;;;;;;5059852;28;20040;-56
2023/05/04 00:38:51;;;;;;;7.65;5.07;;;7.10;99.90;;;;;;5059780;28;20049;-57
2023/05/04 00:41:18;;;;;;;9.82;4.97;;;7.00;99.90;;;;;;5058765;28;20049;-56
2023/05/04 00:43:44;;;;;;;12.07;5.50;;;7.00;99.90;;;;;;5060372;28;20409;-57
2023/05/04 00:46:11;;;;;;;9.13;5.10;;;7.00;99.90;;;;;;5059128;28;20481;-57
2023/05/04 00:48:38;;;;;;;8.13;5.43;;;7.00;99.90;;;;;;5060616;28;20064;-57
2023/05/04 00:51:05;;;;;;;10.93;5.22;;;7.00;99.90;;;;;;5059434;28;20112;-57
2023/05/04 00:53:31;;;;;;;9.13;5.20;;;7.70;99.90;;;;;;5059012;28;20100;-57
2023/05/04 00:55:57;;;;;;;8.20;5.18;;;6.90;99.90;;;;;;5058436;28;20045;-57
2023/05/04 00:58:23;;;;;;;8.35;4.90;;;6.90;99.90;;;;;;5058902;28;20544;-57
2023/05/04 01:00:50;;;;;;;11.38;5.63;;;6.90;99.90;;;;;;5060033;28;20076;-56
2023/05/04 01:03:16;;;;;;;9.90;5.53;;;6.90;99.90;;;;;;5058521;28;20049;-57
2023/05/04 01:05:52;;;;;;;10.40;5.53;;;6.90;99.90;;;;;;5059318;28;20045;-57
2023/05/04 01:08:22;;;;;;;8.80;5.18;;;6.90;99.90;;;;;;5055268;28;20033;-57
2023/05/04 01:11:08;;;;;;;11.55;5.88;;;7.00;99.90;;;;;;5039598;28;20064;-57
2023/05/04 01:13:34;;;;;;;10.93;5.72;;;6.90;99.90;;;;;;5044096;28;20041;-57
2023/05/04 01:16:02;;;;;;;10.27;5.70;;;6.80;99.90;;;;;;5047594;28;20048;-57
2023/05/04 01:18:27;;;;;;;7.93;5.32;;;6.80;99.90;;;;;;5053575;28;20037;-56
2023/05/04 01:20:53;;;;;;;10.57;5.50;;;6.80;99.90;;;;;;5051374;28;20128;-57
2023/05/04 01:23:19;;;;;;;9.27;5.53;;;6.80;99.90;;;;;;5055410;28;20052;-57
2023/05/04 01:26:01;;;;;;;12.75;6.22;;;6.90;99.90;;;;;;5058209;28;20056;-57
2023/05/04 01:28:36;;;;;;;10.25;5.68;;;6.80;99.90;;;;;;5056937;28;20416;-58
2023/05/04 01:31:04;;;;;;;10.32;6.05;;;6.80;99.90;;;;;;5056870;28;20041;-57
2023/05/04 01:33:30;;;;;;;10.57;5.88;;;6.70;99.90;;;;;;5046690;28;20075;-57
2023/05/04 01:35:57;;;;;;;10.65;5.45;;;6.70;99.90;;;;;;5059592;28;20523;-56
2023/05/04 01:38:22;;;;;;;9.98;6.40;;;6.80;99.90;;;;;;5058250;28;20060;-57
2023/05/04 01:40:48;;;;;;;9.27;5.30;;;6.70;99.90;;;;;;5059225;28;20049;-57
2023/05/04 01:43:14;;;;;;;10.10;5.47;;;6.60;99.90;;;;;;5059493;28;20043;-58
2023/05/04 01:45:39;;;;;;;10.13;6.03;;;6.60;99.90;;;;;;5058263;28;20087;-58
2023/05/04 01:48:05;;;;;;;10.07;5.88;;;6.60;99.90;;;;;;5059726;28;20132;-57
2023/05/04 01:50:31;;;;;;;11.85;6.00;;;6.60;99.90;;;;;;5058498;28;20045;-57
2023/05/04 01:52:56;;;;;;;13.02;5.65;;;6.60;99.90;;;;;;5059765;28;20044;-57
2023/05/04 01:55:22;;;;;;;13.10;6.30;;;6.50;99.90;;;;;;5059104;28;20041;-58
2023/05/04 01:57:48;;;;;;;13.80;6.40;;;6.60;99.90;;;;;;5057952;28;20075;-57
2023/05/04 02:00:15;;;;;;;11.15;6.13;;;6.50;99.90;;;;;;5058105;28;20079;-57
2023/05/04 02:02:40;;;;;;;10.35;6.50;;;6.50;99.90;;;;;;5042502;28;20045;-57
2023/05/04 02:05:06;;;;;;;11.65;5.72;;;6.50;99.90;;;;;;5039800;28;20049;-57
2023/05/04 02:07:32;;;;;;;16.08;6.13;;;6.40;99.90;;;;;;5038420;28;20049;-57
2023/05/04 02:09:57;;;;;;;9.48;6.10;;;6.40;99.90;;;;;;5041931;28;20077;-58
2023/05/04 02:12:23;;;;;;;13.52;6.07;;;6.60;99.90;;;;;;5049222;28;20037;-57
2023/05/04 02:14:49;;;;;;;8.07;5.45;;;6.40;99.90;;;;;;5059463;28;20048;-57
2023/05/04 02:17:14;;;;;;;12.30;6.28;;;6.50;99.90;;;;;;5042566;28;20097;-57
2023/05/04 02:19:40;;;;;;;10.63;6.00;;;6.50;99.90;;;;;;5045359;28;20048;-58
2023/05/04 02:22:06;;;;;;;8.63;6.10;;;6.40;99.90;;;;;;5062500;28;20596;-57
2023/05/04 02:24:31;;;;;;;10.10;6.20;;;6.50;99.90;;;;;;5057364;28;20041;-57
2023/05/04 02:26:57;;;;;;;12.32;6.32;;;6.60;99.90;;;;;;5050259;28;20084;-57
2023/05/04 02:29:23;;;;;;;12.35;5.97;;;6.40;99.90;;;;;;5059489;28;20071;-57
2023/05/04 02:31:48;;;;;;;11.52;6.45;;;6.40;99.90;;;;;;5061777;28;20045;-57
2023/05/04 02:34:14;;;;;;;12.55;6.60;;;6.50;99.90;;;;;;5059550;28;20040;-56
2023/05/04 02:36:40;;;;;;;12.35;6.88;;;6.40;99.90;;;;;;5061345;28;20579;-57
2023/05/04 02:39:05;;;;;;;13.65;6.90;;;6.40;99.90;;;;;;5058723;28;20053;-57
2023/05/04 02:41:31;;;;;;;9.60;6.25;;;6.40;99.90;;;;;;5047223;28;20132;-58
2023/05/04 02:43:57;;;;;;;13.18;6.72;;;6.40;99.90;;;;;;5045004;28;20121;-56
2023/05/04 02:46:24;;;;;;;12.88;6.63;;;6.40;99.90;;;;;;5061384;28;20071;-57
2023/05/04 02:48:49;;;;;;;11.70;6.38;;;6.40;99.90;;;;;;5054414;28;20078;-57
2023/05/04 02:51:15;;;;;;;11.45;6.80;;;6.40;99.90;;;;;;5054359;28;20077;-57
2023/05/04 02:53:41;;;;;;;12.07;6.85;;;6.40;99.90;;;;;;5048971;28;20073;-59
2023/05/04 02:56:06;;;;;;;12.98;7.18;;;6.40;99.90;;;;;;5048554;28;20049;-57
2023/05/04 02:58:32;;;;;;;12.52;7.20;;;6.40;99.90;;;;;;5058587;28;20357;-57
2023/05/04 03:00:58;;;;;;;11.82;6.55;;;6.40;99.90;;;;;;5052821;28;20116;-58
2023/05/04 03:03:23;;;;;;;13.43;7.47;;;6.40;99.90;;;;;;5041067;28;20041;-57
2023/05/04 03:05:49;;;;;;;18.10;7.28;;;6.40;99.90;;;;;;5051060;28;20055;-57
2023/05/04 03:08:15;;;;;;;12.10;6.63;;;6.50;99.90;;;;;;5060851;28;20041;-57
2023/05/04 03:10:40;;;;;;;13.55;7.45;;;6.30;99.90;;;;;;5056604;28;20075;-58
2023/05/04 03:13:06;;;;;;;14.02;7.10;;;6.30;99.90;;;;;;5058116;28;20053;-57
2023/05/04 03:15:32;;;;;;;11.48;7.13;;;6.30;99.90;;;;;;5027410;28;20053;-57
2023/05/04 03:17:58;;;;;;;13.13;7.32;;;6.30;99.90;;;;;;5060824;28;20041;-57
2023/05/04 03:20:23;;;;;;;12.07;6.93;;;6.30;99.90;;;;;;5046106;28;20048;-57
2023/05/04 03:22:49;;;;;;;13.88;7.22;;;6.30;99.90;;;;;;5052529;28;20045;-57
2023/05/04 03:25:15;;;;;;;13.85;7.38;;;6.30;99.90;;;;;;5053712;28;20041;-57
2023/05/04 03:27:41;;;;;;;11.95;6.70;;;6.30;99.90;;;;;;5048260;28;20053;-57
2023/05/04 03:30:07;;;;;;;12.32;6.97;;;6.30;99.90;;;;;;5053316;28;20061;-58
2023/05/04 03:32:33;;;;;;;13.70;7.28;;;6.30;99.90;;;;;;5040339;28;20558;-58
2023/05/04 03:34:58;;;;;;;12.93;6.75;;;6.30;99.90;;;;;;5048723;28;20075;-56
2023/05/04 03:37:24;;;;;;;15.57;7.82;;;6.30;99.90;;;;;;5060211;28;20060;-57
2023/05/04 03:39:50;;;;;;;12.15;7.28;;;6.20;99.90;;;;;;5061964;28;20049;-57
2023/05/04 03:42:16;;;;;;;13.02;7.10;;;6.20;99.90;;;;;;5060509;28;20432;-57
2023/05/04 03:44:42;;;;;;;15.20;7.65;;;6.50;99.90;;;;;;5059382;28;20060;-58
2023/05/04 03:47:07;;;;;;;15.98;7.38;;;7.30;99.90;;;;;;5058700;28;20070;-57
2023/05/04 03:49:33;;;;;;;19.75;7.15;;;6.20;99.90;;;;;;5059351;28;20063;-58
2023/05/04 03:51:59;;;;;;;12.32;6.80;;;6.20;99.90;;;;;;5060222;28;20041;-56
2023/05/04 03:54:25;;;;;;;11.63;6.75;;;6.20;99.90;;;;;;5059573;28;20087;-57
2023/05/04 03:56:51;;;;;;;16.80;7.72;;;6.20;99.90;;;;;;5056997;28;20029;-57
2023/05/04 03:59:17;;;;;;;12.70;7.38;;;6.20;99.90;;;;;;5043243;28;20040;-57
2023/05/04 04:01:43;;;;;;;13.98;8.35;;;6.20;99.90;;;;;;5058383;28;20485;-58
2023/05/04 04:04:09;;;;;;;11.20;7.30;;;6.10;99.90;;;;;;5058418;28;20044;-57
2023/05/04 04:06:34;;;;;;;17.15;7.72;;;6.10;99.90;;;;;;5055576;28;20041;-57
2023/05/04 04:09:00;;;;;;;13.43;6.93;;;6.10;99.90;;;;;;5052886;28;20064;-57
2023/05/04 04:11:26;;;;;;;13.90;7.22;;;6.10;99.90;;;;;;5058232;28;20044;-58
2023/05/04 04:13:52;;;;;;;13.45;7.63;;;6.20;99.90;;;;;;5060401;28;20053;-58
2023/05/04 04:16:19;;;;;;;13.10;7.45;;;6.20;99.90;;;;;;5058215;28;20059;-57
2023/05/04 04:18:45;;;;;;;15.57;7.90;;;6.10;99.90;;;;;;5044786;28;20120;-57
2023/05/04 04:21:11;;;;;;;17.75;7.40;;;6.10;99.90;;;;;;5050256;28;20045;-57
2023/05/04 04:23:37;;;;;;;16.40;7.70;;;6.00;99.90;;;;;;5060154;28;20044;-57
2023/05/04 04:26:05;;;;;;;11.23;7.25;;;6.00;99.90;;;;;;5041814;28;20038;-57
2023/05/04 04:28:33;;;;;;;13.13;7.70;;;6.00;99.90;;;;;;5038316;28;20037;-57
2023/05/04 04:31:00;;;;;;;13.02;7.70;;;6.00;99.90;;;;;;5047594;28;20064;-57
2023/05/04 04:33:26;;;;;;;11.10;7.63;;;6.10;99.90;;;;;;5050503;28;20048;-57
2023/05/04 04:35:52;;;;;;;13.00;7.53;;;6.00;99.90;;;;;;5060159;28;20041;-56
2023/05/04 04:38:18;;;;;;;14.15;7.60;;;6.00;99.90;;;;;;5059752;28;20045;-57
2023/05/04 04:40:44;;;;;;;11.77;7.78;;;6.10;99.90;;;;;;5059049;28;20055;-57
2023/05/04 04:43:10;;;;;;;16.20;9.13;;;6.00;99.90;;;;;;5057711;28;20032;-56
2023/05/04 04:45:36;;;;;;;14.20;7.88;;;6.00;99.90;;;;;;5052778;28;20044;-58
2023/05/04 04:48:02;;;;;;;14.02;7.78;;;6.00;99.90;;;;;;5048087;28;20056;-57
2023/05/04 04:50:28;;;;;;;12.00;7.05;;;6.00;99.90;;;;;;5039032;28;20517;-57
2023/05/04 04:52:54;;;;;;;13.05;7.40;;;6.10;99.90;;;;;;5049220;28;20076;-57
2023/05/04 04:55:24;;;;;;;14.38;8.07;;;6.10;99.90;;;;;;5052866;28;20087;-57
2023/05/04 04:57:49;;;;;;;15.05;7.93;;;6.10;99.90;;;;;;5054259;28;20036;-57
2023/05/04 05:00:16;;;;;;;15.13;7.68;;;6.20;99.90;;;;;;5055631;28;20048;-57
2023/05/04 05:02:42;;;;;;;13.70;8.13;;;6.10;99.90;;;;;;5038812;28;20069;-57
2023/05/04 05:05:08;;;;;;;14.02;7.60;;;6.40;99.90;;;;;;5051572;28;20413;-57
2023/05/04 05:07:34;;;;;;;15.57;8.15;;;6.20;99.90;;;;;;5040743;28;20036;-57
2023/05/04 05:10:00;;;;;;;16.48;7.90;;;6.30;99.90;;;;;;5050065;28;20040;-57
2023/05/04 05:12:26;;;;;;;14.07;7.63;;;6.30;99.90;;;;;;5050272;28;20036;-57
2023/05/04 05:14:51;;;;;;;13.27;7.53;;;6.30;99.90;;;;;;5049096;28;20095;-58
2023/05/04 05:17:18;;;;;;;15.32;8.38;;;6.30;99.90;;;;;;5054047;28;20052;-56
2023/05/04 05:19:44;;;;;;;14.80;8.27;;;6.40;99.90;;;;;;5042615;28;20407;-56
2023/05/04 05:22:09;;;;;;;16.17;7.82;;;6.40;99.90;;;;;;5042849;28;20045;-57
2023/05/04 05:24:35;;;;;;;16.25;8.30;;;6.50;99.90;;;;;;5055562;28;20060;-57
2023/05/04 05:27:01;;;;;;;16.80;8.80;;;6.50;99.90;;;;;;5059561;28;20076;-57
2023/05/04 05:29:27;;;;;;;17.67;7.97;;;6.50;99.90;;;;;;5058985;28;20033;-57
2023/05/04 05:31:53;;;;;;;17.73;8.00;;;6.60;99.90;;;;;;5052878;28;20549;-57
2023/05/04 05:34:18;;;;;;;12.40;7.68;;;6.60;99.90;;;;;;5043771;28;20043;-58
2023/05/04 05:36:44;;;;;;;13.70;8.57;;;6.70;99.90;;;;;;5058336;28;20037;-57
2023/05/04 05:39:10;;;;;;;16.52;8.75;;;6.70;99.90;;;;;;5059648;28;20084;-57
2023/05/04 05:41:36;;;;;;;15.00;7.57;;;6.80;99.90;;;;;;5042520;28;20041;-57
2023/05/04 05:44:02;;;;;;;14.85;7.90;;;6.90;99.90;;;;;;5042462;28;20120;-57
2023/05/04 05:46:28;;;;;;;17.17;9.13;;;6.90;99.90;;;;;;5060710;28;20080;-57
2023/05/04 05:48:53;;;;;;;14.23;8.07;;;7.00;99.90;;;;;;5062430;28;20037;-57
2023/05/04 05:51:19;;;;;;;10.98;7.38;;;7.10;99.90;;;;;;5062952;28;20439;-57
2023/05/04 05:53:45;;;;;;;14.30;8.68;;;7.10;99.90;;;;;;5062191;28;20041;-57
2023/05/04 05:56:12;;;;;;;16.00;8.20;;;7.20;99.90;;;;;;5058570;28;20040;-56
2023/05/04 05:58:38;;;;;;;18.38;9.20;;;7.30;99.90;;;;;;5061309;28;20099;-57
2023/05/04 06:01:04;;;;;;;17.48;8.60;;;7.40;99.90;;;;;;5063272;28;20075;-54
2023/05/04 06:03:29;;;;;;;17.38;9.00;;;7.50;99.90;;;;;;5062461;28;20698;-55
2023/05/04 06:05:55;;;;;;;13.25;8.30;;;7.60;99.90;;;;;;5062649;28;20120;-57
2023/05/04 06:08:21;;;;;;;13.95;7.70;;;7.70;99.90;;;;;;5050151;28;20498;-57
2023/05/04 06:10:47;;;;;;;11.77;7.38;;;7.80;99.90;;;;;;5057878;28;20413;-55
2023/05/04 06:13:13;;;;;;;14.82;8.20;;;7.90;99.90;;;;;;5056008;28;20053;-55
2023/05/04 06:15:38;;;;;;;17.33;8.57;;;8.10;99.90;;;;;;5043104;28;20041;-58
2023/05/04 06:18:04;;;;;;;17.75;7.90;;;8.20;99.90;;;;;;5055611;28;20033;-58
2023/05/04 06:20:30;;;;;;;15.90;8.43;;;8.20;99.90;;;;;;5053192;28;20037;-58
2023/05/04 06:22:56;;;;;;;13.40;8.68;;;8.30;99.90;;;;;;5059038;28;20061;-58
2023/05/04 06:25:22;;;;;;;13.00;8.05;;;8.10;99.90;;;;;;5050004;28;20076;-57
2023/05/04 06:27:47;;;;;;;13.73;7.75;;;8.60;99.90;;;;;;5053902;28;20041;-57
2023/05/04 06:30:14;;;;;;;17.42;7.78;;;8.70;99.90;;;;;;5050674;28;20045;-58
2023/05/04 06:32:40;;;;;;;14.20;8.63;;;8.80;99.90;;;;;;5054243;28;20049;-57
2023/05/04 06:35:07;;;;;;;19.80;8.32;;;9.10;99.90;;;;;;5054493;28;20048;-56
2023/05/04 06:37:33;;;;;;;17.23;7.43;;;9.30;99.90;;;;;;5058395;28;20037;-56
2023/05/04 06:39:59;;;;;;;15.45;7.78;;;9.50;99.90;;;;;;5054434;28;20056;-57
2023/05/04 06:42:29;;;;;;;14.95;7.95;;;9.70;99.90;;;;;;5053287;28;20060;-57
2023/05/04 06:44:56;;;;;;;14.65;7.70;;;9.90;99.90;;;;;;5050645;28;20052;-57
2023/05/04 06:47:22;;;;;;;12.55;7.00;;;10.10;99.90;;;;;;5059571;28;20143;-57
2023/05/04 06:49:48;;;;;;;12.65;6.93;;;10.30;99.90;;;;;;5052887;28;20130;-58
2023/05/04 06:52:13;;;;;;;12.77;7.53;;;10.40;99.90;;;;;;5043022;28;20037;-58
2023/05/04 06:54:39;;;;;;;13.07;7.35;;;10.50;99.90;;;;;;5052463;28;20256;-58
2023/05/04 06:57:05;;;;;;;10.38;7.07;;;10.60;99.90;;;;;;5051295;28;20447;-58
2023/05/04 06:59:31;;;;;;;12.30;7.30;;;10.70;99.90;;;;;;5049223;28;20140;-58
2023/05/04 07:01:56;;;;;;;12.35;7.15;;;10.80;99.90;;;;;;5049468;28;20033;-58
2023/05/04 07:04:22;;;;;;;15.57;7.75;;;10.80;99.90;;;;;;5048137;28;20076;-58
2023/05/04 07:06:51;;;;;;;11.27;7.18;;;10.80;99.90;;;;;;5047186;28;24073;-57
2023/05/04 07:09:20;;;;;;;12.75;7.22;;;10.80;99.90;;;;;;5055215;28;20047;-58
2023/05/04 07:11:47;;;;;;;9.18;6.47;;;10.90;99.90;;;;;;5046828;28;20048;-58
2023/05/04 07:14:14;;;;;;;10.25;6.95;;;11.00;99.90;;;;;;5047475;28;20049;-58
2023/05/04 07:16:40;;;;;;;9.48;6.43;;;11.10;99.90;;;;;;5048097;28;20037;-58
2023/05/04 07:19:05;;;;;;;12.40;6.15;;;11.10;99.90;;;;;;5052209;28;20071;-58
2023/05/04 07:21:31;;;;;;;12.32;6.85;;;11.30;99.90;;;;;;5054980;28;20045;-58
2023/05/04 07:23:57;;;;;;;13.65;7.03;;;11.40;99.90;;;;;;5047032;28;20038;-58
2023/05/04 07:26:23;;;;;;;9.48;6.80;;;11.50;99.90;;;;;;5045668;28;20037;-58
2023/05/04 07:28:49;;;;;;;13.82;7.03;;;11.80;99.90;;;;;;5047035;28;20037;-58
2023/05/04 07:31:14;;;;;;;13.23;7.30;;;12.00;99.90;;;;;;5056615;28;20045;-58
2023/05/04 07:33:41;;;;;;;8.15;5.85;;;12.20;99.90;;;;;;5056389;28;20049;-58
2023/05/04 07:36:07;;;;;;;11.00;6.13;;;12.30;99.90;;;;;;5053165;28;20048;-58
2023/05/04 07:38:32;;;;;;;14.35;5.75;;;12.30;99.90;;;;;;5058704;28;20059;-58
2023/05/04 07:40:58;;;;;;;11.50;7.03;;;12.40;99.90;;;;;;5057123;28;20116;-58
2023/05/04 07:43:24;;;;;;;9.50;6.82;;;12.40;99.90;;;;;;5051628;28;20489;-58
2023/05/04 07:45:52;;;;;;;13.80;7.00;;;12.60;99.90;;;;;;5049875;28;20045;-58
2023/05/04 07:48:17;;;;;;;10.88;6.50;;;12.80;99.90;;;;;;5050927;28;20052;-58
2023/05/04 07:50:43;;;;;;;12.77;7.00;;;13.30;99.90;;;;;;5054328;28;20051;-58
2023/05/04 07:53:09;;;;;;;11.77;7.00;;;13.10;99.90;;;;;;5055081;28;20037;-58
2023/05/04 07:55:35;;;;;;;10.70;6.75;;;13.30;99.90;;;;;;5056774;28;20124;-58
2023/05/04 07:58:01;;;;;;;13.50;7.10;;;13.40;99.90;;;;;;5055093;28;20047;-58
2023/05/04 08:00:27;;;;;;;13.70;7.03;;;13.60;99.90;;;;;;5054301;28;20065;-58
2023/05/04 08:02:53;;;;;;;12.48;6.72;;;13.70;99.90;;;;;;5047535;28;20041;-58
2023/05/04 08:05:19;;;;;;;12.43;6.70;;;13.90;99.90;;;;;;5052859;28;20042;-58
2023/05/04 08:07:45;;;;;;;11.77;6.35;;;14.00;99.90;;;;;;5054270;28;20049;-58
2023/05/04 08:10:11;;;;;;;11.02;7.10;;;14.10;99.90;;;;;;5051331;28;20037;-58
2023/05/04 08:12:39;;;;;;;10.55;6.60;;;14.20;99.90;;;;;;5051908;28;20041;-58
2023/05/04 08:15:06;;;;;;;13.73;7.03;;;14.30;99.90;;;;;;5045438;28;20069;-58
2023/05/04 08:17:33;;;;;;;16.60;7.22;;;14.30;99.90;;;;;;5053402;28;20049;-58
2023/05/04 08:20:00;;;;;;;10.63;6.75;;;14.40;99.90;;;;;;5054387;28;20060;-59
2023/05/04 08:22:26;;;;;;;12.35;7.07;;;14.50;99.90;;;;;;5051184;28;20068;-57
2023/05/04 08:24:51;;;;;;;10.38;6.25;;;14.50;99.90;;;;;;5050158;28;20037;-58
2023/05/04 08:27:17;;;;;;;10.35;6.45;;;14.40;99.90;;;;;;5048397;28;20076;-58
2023/05/04 08:29:43;;;;;;;11.82;7.18;;;14.50;99.90;;;;;;5052367;28;20071;-58
2023/05/04 08:32:09;;;;;;;11.43;6.60;;;14.50;99.90;;;;;;5049505;28;20051;-58
2023/05/04 08:34:35;;;;;;;9.63;6.97;;;14.50;99.90;;;;;;5049328;28;20048;-58
2023/05/04 08:37:03;;;;;;;11.23;6.88;;;14.50;99.90;;;;;;5051824;28;20036;-58
2023/05/04 08:39:29;;;;;;;9.55;5.97;;;14.60;99.90;;;;;;5057695;28;20382;-58
2023/05/04 08:41:55;;;;;;;9.85;5.65;;;14.80;99.90;;;;;;5053294;28;20037;-58
2023/05/04 08:44:21;;;;;;;16.17;6.68;;;14.90;99.90;;;;;;5046771;28;20029;-59
2023/05/04 08:46:51;;;;;;;9.90;6.28;;;15.00;99.90;;;;;;5051435;28;20045;-58
2023/05/04 08:49:19;;;;;;;10.13;6.78;;;15.10;99.90;;;;;;5057114;28;20041;-58
2023/05/04 08:51:45;;;;;;;10.70;7.07;;;15.10;99.90;;;;;;5040071;28;20045;-58
2023/05/04 08:54:11;;;;;;;10.88;6.82;;;15.20;99.90;;;;;;5050442;28;20041;-58
2023/05/04 08:56:39;;;;;;;12.43;6.60;;;15.30;99.90;;;;;;5048369;28;20131;-58
2023/05/04 08:59:06;;;;;;;9.27;6.15;;;15.40;99.90;;;;;;5032541;28;20048;-58
2023/05/04 09:01:33;;;;;;;10.32;6.50;;;15.50;99.90;;;;;;5049088;28;20041;-58
2023/05/04 09:04:01;;;;;;;9.77;5.55;;;15.70;99.90;;;;;;5057765;28;20049;-60
2023/05/04 09:06:27;;;;;;;10.20;6.43;;;15.70;99.90;;;;;;5051160;28;20033;-58
2023/05/04 09:08:53;;;;;;;14.07;6.80;;;15.80;99.90;;;;;;5037426;28;20129;-58
2023/05/04 09:11:19;;;;;;;9.52;5.85;;;15.90;99.90;;;;;;5053580;28;20041;-58
2023/05/04 09:13:45;;;;;;;9.18;5.90;;;15.90;99.90;;;;;;5058379;28;20056;-58
2023/05/04 09:16:13;;;;;;;13.65;6.60;;;16.00;99.90;;;;;;5052651;28;20052;-58
2023/05/04 09:18:41;;;;;;;10.75;6.93;;;16.10;99.90;;;;;;5044544;28;20049;-58
2023/05/04 09:21:08;;;;;;;13.90;6.50;;;16.20;99.90;;;;;;5052851;28;20052;-58
2023/05/04 09:23:45;;;;;;;13.23;5.70;;;16.40;99.90;;;;;;5056734;28;20519;-58
2023/05/04 09:26:11;;;;;;;12.73;6.18;;;16.60;99.70;;;;;;5042777;28;20045;-59
2023/05/04 09:28:40;;;;;;;13.00;6.30;;;16.70;99.90;;;;;;5053816;28;20068;-59
2023/05/04 09:31:06;;;;;;;10.10;5.70;;;16.80;99.50;;;;;;5047804;28;20045;-58
2023/05/04 09:33:33;;;;;;;10.90;6.32;;;16.90;99.60;;;;;;5051731;28;20044;-59
2023/05/04 09:36:11;;;;;;;10.52;5.63;;;17.10;98.70;;;;;;5050767;28;20092;-58
2023/05/04 09:38:36;;;;;;;8.95;5.22;;;17.10;98.40;;;;;;5056602;28;20049;-59
2023/05/04 09:41:02;;;;;;;9.88;5.53;;;17.20;97.90;;;;;;5058799;28;20123;-58
2023/05/04 09:43:39;;;;;;;9.00;5.63;;;17.30;97.80;;;;;;5055373;28;20040;-59
2023/05/04 09:46:05;;;;;;;9.15;5.90;;;17.40;97.50;;;;;;5058151;28;20045;-58
2023/05/04 09:48:31;;;;;;;6.97;4.93;;;17.40;96.70;;;;;;5062366;28;20051;-58
2023/05/04 09:50:58;;;;;;;10.25;5.53;;;17.40;96.70;;;;;;5054283;28;20121;-58
2023/05/04 09:53:26;;;;;;;7.70;4.57;;;17.40;96.00;;;;;;5060292;28;20079;-58
2023/05/04 09:56:09;;;;;;;11.35;5.75;;;17.40;96.10;;;;;;5058664;28;20053;-58
2023/05/04 09:58:36;;;;;;;9.38;5.03;;;17.50;96.10;;;;;;5060040;28;20045;-59
2023/05/04 10:01:02;;;;;;;15.82;5.30;;;17.50;95.70;;;;;;5046475;28;20079;-58
2023/05/04 10:03:29;;;;;;;13.98;5.00;;;17.50;95.50;;;;;;5048982;28;20045;-59
2023/05/04 10:05:57;;;;;;;14.65;5.88;;;17.50;94.90;;;;;;5058319;28;20170;-58
2023/05/04 10:08:24;;;;;;;10.68;5.10;;;17.50;94.50;;;;;;5055431;28;20061;-58
2023/05/04 10:10:51;;;;;;;8.73;4.97;;;17.50;95.20;;;;;;5057910;28;20048;-58
2023/05/04 10:13:16;;;;;;;12.98;5.68;;;17.60;95.10;;;;;;5049135;28;20037;-59
2023/05/04 10:16:17;;;;;;;8.48;5.47;;;17.60;95.20;;;;;;5052046;28;20708;-58
2023/05/04 10:19:18;;;;;;;7.30;4.60;;;17.70;95.10;;;;;;5056454;28;20057;-58
2023/05/04 10:22:06;;;;;;;10.00;5.50;;;17.80;94.60;;;;;;5050055;28;20120;-59
2023/05/04 10:24:52;;;;;;;9.73;5.13;;;17.80;94.20;;;;;;5056401;28;20084;-57
2023/05/04 10:27:35;;;;;;;10.23;5.75;;;17.80;93.90;;;;;;5053388;28;20060;-58
2023/05/04 10:30:01;;;;;;;10.40;5.25;;;17.70;93.60;;;;;;5057043;28;20041;-57
2023/05/04 10:32:27;;;;;;;10.52;5.22;;;17.70;93.40;;;;;;5058257;28;20049;-58
2023/05/04 10:35:06;;;;;;;10.07;5.15;;;17.70;94.00;;;;;;5057591;28;20048;-58
2023/05/04 10:37:33;;;;;;;8.48;5.70;;;17.70;93.70;;;;;;5057372;28;20025;-58
2023/05/04 10:39:59;;;;;;;12.55;5.53;;;17.70;93.50;;;;;;5050329;28;20500;-58
2023/05/04 10:42:24;;;;;;;9.55;4.95;;;17.80;93.90;;;;;;5051854;28;20040;-58
2023/05/04 10:44:56;;;;;;;9.68;5.70;;;17.90;93.70;;;;;;5058905;28;20041;-57
2023/05/04 10:47:32;;;;;;;9.27;5.00;;;18.00;93.30;;;;;;5059029;28;20041;-58
2023/05/04 10:50:02;;;;;;;11.55;5.20;;;18.10;93.10;;;;;;5058704;28;20133;-58
2023/05/04 10:52:30;;;;;;;8.77;5.47;;;18.20;91.80;;;;;;5051174;28;20041;-58
2023/05/04 10:55:00;;;;;;;8.68;5.10;;;18.50;92.00;;;;;;5052844;28;20041;-58
2023/05/04 10:57:27;;;;;;;8.00;5.03;;;18.20;92.00;;;;;;5056474;28;20049;-58
2023/05/04 10:59:57;;;;;;;10.10;5.88;;;18.20;92.20;;;;;;5057667;28;20037;-58
2023/05/04 11:02:25;;;;;;;11.18;5.18;;;18.20;91.90;;;;;;5056710;28;20044;-58
2023/05/04 11:05:04;;;;;;;8.35;4.93;;;18.30;92.30;;;;;;5058079;28;21342;-58
2023/05/04 11:07:37;;;;;;;11.82;4.53;;;18.40;92.10;;;;;;5057900;28;20076;-59
2023/05/04 11:10:05;;;;;;;8.50;5.03;;;18.40;91.60;;;;;;5052409;28;20053;-58
2023/05/04 11:12:31;;;;;;;11.48;5.40;;;18.60;91.80;;;;;;5046236;28;20048;-58
2023/05/04 11:15:09;;;;;;;8.73;4.50;;;18.70;91.10;;;;;;5073800;28;20049;-58
2023/05/04 11:17:52;;;;;;;9.00;4.35;;;18.80;90.90;;;;;;5049253;28;20053;-58
2023/05/04 11:20:25;;;;;;;8.13;5.22;;;18.80;90.90;;;;;;5055588;28;20096;-58
2023/05/04 11:22:52;;;;;;;7.00;4.60;;;18.90;90.50;;;;;;5059504;28;20144;-58
2023/05/04 11:25:28;;;;;;;11.35;4.85;;;18.90;90.50;;;;;;5051691;28;20037;-59
2023/05/04 11:27:54;;;;;;;12.00;5.35;;;19.00;90.30;;;;;;5053033;28;20051;-58
2023/05/04 11:30:20;;;;;;;8.38;4.93;;;19.00;90.40;;;;;;5051012;28;20065;-58
2023/05/04 11:32:46;;;;;;;8.75;5.55;;;19.10;90.40;;;;;;5047187;28;20045;-58
2023/05/04 11:35:23;;;;;;;9.13;5.15;;;19.20;89.40;;;;;;5059754;28;20056;-58
2023/05/04 11:37:49;;;;;;;8.68;5.18;;;19.20;90.10;;;;;;5056786;28;20044;-58
2023/05/04 11:40:25;;;;;;;7.85;4.72;;;19.30;89.40;;;;;;5052803;28;20068;-58
2023/05/04 11:42:53;;;;;;;7.30;4.63;;;19.40;89.40;;;;;;5052015;28;20041;-58
2023/05/04 11:45:23;;;;;;;8.65;4.55;;;19.40;89.50;;;;;;5056352;28;20058;-58
2023/05/04 11:47:51;;;;;;;9.85;4.40;;;19.50;88.80;;;;;;5053989;28;20864;-59
2023/05/04 11:50:19;;;;;;;9.98;4.43;;;19.50;88.60;;;;;;5059175;28;20032;-58
2023/05/04 11:52:46;;;;;;;8.55;5.10;;;19.50;87.40;;;;;;5052791;28;20041;-58
2023/05/04 11:55:24;;;;;;;8.82;5.05;;;19.50;86.90;;;;;;5048714;28;20099;-57
2023/05/04 11:58:02;;;;;;;7.65;4.72;;;19.40;86.30;;;;;;5055609;28;20120;-57
2023/05/04 12:00:39;;;;;;;10.40;4.90;;;19.40;86.70;;;;;;5058522;28;20068;-56
2023/05/04 12:03:07;;;;;;;8.60;5.18;;;19.40;87.10;;;;;;5056858;28;20048;-57
2023/05/04 12:05:34;;;;;;;9.27;4.68;;;19.50;87.20;;;;;;5044460;28;20053;-57
2023/05/04 12:08:02;;;;;;;7.90;4.60;;;19.60;86.60;;;;;;5036175;28;20085;-57
2023/05/04 12:10:34;;;;;;;8.57;4.65;;;19.80;87.00;;;;;;5037462;28;20076;-57
2023/05/04 12:13:00;;;;;;;8.07;4.05;;;19.90;86.80;;;;;;5040490;28;20894;-57
2023/05/04 12:15:36;;;;;;;8.63;4.60;;;20.10;84.40;;;;;;5051226;28;20068;-57
2023/05/04 12:18:02;;;;;;;8.07;4.15;;;20.10;84.20;;;;;;5060515;28;20330;-57
2023/05/04 12:20:29;;;;;;;7.53;3.90;;;20.10;83.70;;;;;;5057955;28;20049;-56
2023/05/04 12:22:56;;;;;;;10.50;4.47;;;20.10;83.00;;;;;;5060628;28;20062;-58
2023/05/04 12:25:24;;;;;;;9.15;4.35;;;20.10;82.70;;;;;;5060105;28;20040;-56
2023/05/04 12:27:50;;;;;;;7.85;4.47;;;20.20;83.10;;;;;;5060075;28;20068;-56
2023/05/04 12:30:16;;;;;;;9.95;4.72;;;20.30;82.20;;;;;;5060679;28;20041;-56
2023/05/04 12:32:43;;;;;;;7.80;4.00;;;20.40;81.20;;;;;;5057879;28;20481;-57
2023/05/04 12:35:09;;;;;;;10.57;4.53;;;20.50;81.40;;;;;;5060600;28;20377;-55
2023/05/04 12:37:35;;;;;;;8.75;4.35;;;20.80;81.00;;;;;;5058099;28;20049;-56
2023/05/04 12:40:01;;;;;;;7.60;4.40;;;20.90;81.30;;;;;;5059950;28;20061;-57
2023/05/04 12:42:27;;;;;;;7.25;3.88;;;21.20;80.00;;;;;;5059421;28;20057;-56
2023/05/04 12:44:53;;;;;;;7.38;4.70;;;21.40;80.30;;;;;;5057525;28;20123;-57
2023/05/04 12:47:19;;;;;;;6.82;4.13;;;21.60;79.90;;;;;;5059601;28;20529;-56